sensor_id;sensor_type;location;lat;lon;timestamp;temperature;humidity
40291;DHT22;26000;48.304;13.626;2023-04-25T00:00:17;9.40;99.90
40291;DHT22;26000;48.304;13.626;2023-04-25T00:02:43;9.40;99.90
40291;DHT22;26000;48.304;13.626;2023-04-25T00:05:08;9.40;99.90
40291;DHT22;26000;48.304;13.626;2023-04-25T00:07:34;9.40;99.90
40291;DHT22;26000;48.304;13.626;2023-04-25T00:10:00;9.40;99.90
40291;DHT22;26000;48.304;13.626;2023-04-25T00:12:26;9.30;99.90
40291;DHT22;26000;48.304;13.626;2023-04-25T00:14:54;9.30;99.90
40291;DHT22;26000;48.304;13.626;2023-04-25T00:17:23;9.30;99.90
40291;DHT22;26000;48.304;13.626;2023-04-25T00:19:50;9.30;99.90
40291;DHT22;26000;48.304;13.626;2023-04-25T00:22:16;9.30;99.90
40291;DHT22;26000;48.304;13.626;2023-04-25T00:24:42;9.40;99.90
40291;DHT22;26000;48.304;13.626;2023-04-25T00:27:08;9.40;99.90
40291;DHT22;26000;48.304;13.626;2023-04-25T00:29:34;9.30;99.90
40291;DHT22;26000;48.304;13.626;2023-04-25T00:31:59;9.30;99.90
40291;DHT22;26000;48.304;13.626;2023-04-25T00:34:25;9.40;99.90
40291;DHT22;26000;48.304;13.626;2023-04-25T00:36:51;9.40;99.90
40291;DHT22;26000;48.304;13.626;2023-04-25T00:39:17;9.40;99.90
40291;DHT22;26000;48.304;13.626;2023-04-25T00:41:43;9.40;99.90
40291;DHT22;26000;48.304;13.626;2023-04-25T00:44:11;9.50;99.90
40291;DHT22;26000;48.304;13.626;2023-04-25T00:46:38;9.40;99.90
40291;DHT22;26000;48.304;13.626;2023-04-25T00:49:04;9.50;99.90
40291;DHT22;26000;48.304;13.626;2023-04-25T00:51:30;9.40;99.90
40291;DHT22;26000;48.304;13.626;2023-04-25T00:53:56;9.40;99.90
40291;DHT22;26000;48.304;13.626;2023-04-25T00:56:22;9.30;99.90
40291;DHT22;26000;48.304;13.626;2023-04-25T00:58:48;9.40;99.90
40291;DHT22;26000;48.304;13.626;2023-04-25T01:01:15;9.40;99.90
40291;DHT22;26000;48.304;13.626;2023-04-25T01:03:42;9.30;99.90
40291;DHT22;26000;48.304;13.626;2023-04-25T01:06:11;9.30;99.90
40291;DHT22;26000;48.304;13.626;2023-04-25T01:08:38;9.30;99.90
40291;DHT22;26000;48.304;13.626;2023-04-25T01:11:04;9.20;99.90
40291;DHT22;26000;48.304;13.626;2023-04-25T01:13:30;9.20;99.90
40291;DHT22;26000;48.304;13.626;2023-04-25T01:15:58;9.10;99.90
40291;DHT22;26000;48.304;13.626;2023-04-25T01:18:23;9.20;99.90
40291;DHT22;26000;48.304;13.626;2023-04-25T01:20:51;9.10;99.90
40291;DHT22;26000;48.304;13.626;2023-04-25T01:23:18;9.10;99.90
40291;DHT22;26000;48.304;13.626;2023-04-25T01:25:45;9.20;99.90
40291;DHT22;26000;48.304;13.626;2023-04-25T01:28:11;9.10;99.90
40291;DHT22;26000;48.304;13.626;2023-04-25T01:30:37;9.20;99.90
40291;DHT22;26000;48.304;13.626;2023-04-25T01:33:04;9.20;99.90
40291;DHT22;26000;48.304;13.626;2023-04-25T01:35:31;9.20;99.90
40291;DHT22;26000;48.304;13.626;2023-04-25T01:37:57;9.10;99.90
40291;DHT22;26000;48.304;13.626;2023-04-25T01:40:24;9.10;99.90
40291;DHT22;26000;48.304;13.626;2023-04-25T01:42:50;9.00;99.90
40291;DHT22;26000;48.304;13.626;2023-04-25T01:45:16;9.10;99.90
40291;DHT22;26000;48.304;13.626;2023-04-25T01:47:43;9.10;99.90
40291;DHT22;26000;48.304;13.626;2023-04-25T01:50:09;9.00;99.90
40291;DHT22;26000;48.304;13.626;2023-04-25T01:52:36;9.00;99.90
40291;DHT22;26000;48.304;13.626;2023-04-25T01:55:02;9.00;99.90
40291;DHT22;26000;48.304;13.626;2023-04-25T01:57:28;9.00;99.90
40291;DHT22;26000;48.304;13.626;2023-04-25T02:00:05;9.00;99.90
40291;DHT22;26000;48.304;13.626;2023-04-25T02:02:32;8.90;99.90
40291;DHT22;26000;48.304;13.626;2023-04-25T02:04:57;8.90;99.90
40291;DHT22;26000;48.304;13.626;2023-04-25T02:07:23;8.80;99.90
40291;DHT22;26000;48.304;13.626;2023-04-25T02:09:48;8.80;99.90
40291;DHT22;26000;48.304;13.626;2023-04-25T02:12:14;8.80;99.90
40291;DHT22;26000;48.304;13.626;2023-04-25T02:14:40;8.80;99.90
40291;DHT22;26000;48.304;13.626;2023-04-25T02:17:05;8.80;99.90
40291;DHT22;26000;48.304;13.626;2023-04-25T02:19:31;8.90;99.90
40291;DHT22;26000;48.304;13.626;2023-04-25T02:21:57;8.90;99.90
40291;DHT22;26000;48.304;13.626;2023-04-25T02:24:23;8.90;99.90
40291;DHT22;26000;48.304;13.626;2023-04-25T02:26:49;8.90;99.90
40291;DHT22;26000;48.304;13.626;2023-04-25T02:29:15;8.90;99.90
40291;DHT22;26000;48.304;13.626;2023-04-25T02:31:41;8.80;99.90
40291;DHT22;26000;48.304;13.626;2023-04-25T02:34:06;8.80;99.90
40291;DHT22;26000;48.304;13.626;2023-04-25T02:36:32;8.80;99.90
40291;DHT22;26000;48.304;13.626;2023-04-25T02:39:00;8.80;99.90
40291;DHT22;26000;48.304;13.626;2023-04-25T02:41:26;8.70;99.90
40291;DHT22;26000;48.304;13.626;2023-04-25T02:43:52;8.70;99.90
40291;DHT22;26000;48.304;13.626;2023-04-25T02:46:17;8.80;99.90
40291;DHT22;26000;48.304;13.626;2023-04-25T02:48:43;8.90;99.90
40291;DHT22;26000;48.304;13.626;2023-04-25T02:51:09;8.90;99.90
40291;DHT22;26000;48.304;13.626;2023-04-25T02:53:35;8.80;99.90
40291;DHT22;26000;48.304;13.626;2023-04-25T02:56:01;8.80;99.90
40291;DHT22;26000;48.304;13.626;2023-04-25T02:58:27;8.90;99.90
40291;DHT22;26000;48.304;13.626;2023-04-25T03:00:52;8.80;99.90
40291;DHT22;26000;48.304;13.626;2023-04-25T03:03:18;8.90;99.90
40291;DHT22;26000;48.304;13.626;2023-04-25T03:05:50;8.90;99.90
40291;DHT22;26000;48.304;13.626;2023-04-25T03:08:16;8.90;99.90
40291;DHT22;26000;48.304;13.626;2023-04-25T03:10:42;8.90;99.90
40291;DHT22;26000;48.304;13.626;2023-04-25T03:13:08;8.90;99.90
40291;DHT22;26000;48.304;13.626;2023-04-25T03:15:34;8.90;99.90
40291;DHT22;26000;48.304;13.626;2023-04-25T03:18:00;8.80;99.90
40291;DHT22;26000;48.304;13.626;2023-04-25T03:20:26;8.80;99.90
40291;DHT22;26000;48.304;13.626;2023-04-25T03:22:52;8.80;99.90
40291;DHT22;26000;48.304;13.626;2023-04-25T03:25:17;8.80;99.90
40291;DHT22;26000;48.304;13.626;2023-04-25T03:27:43;8.80;99.90
40291;DHT22;26000;48.304;13.626;2023-04-25T03:30:09;8.80;99.90
40291;DHT22;26000;48.304;13.626;2023-04-25T03:32:35;8.70;99.90
40291;DHT22;26000;48.304;13.626;2023-04-25T03:35:00;8.80;99.90
40291;DHT22;26000;48.304;13.626;2023-04-25T03:37:26;8.80;99.90
40291;DHT22;26000;48.304;13.626;2023-04-25T03:39:51;8.90;99.90
40291;DHT22;26000;48.304;13.626;2023-04-25T03:42:17;8.90;99.90
40291;DHT22;26000;48.304;13.626;2023-04-25T03:44:43;8.90;99.90
40291;DHT22;26000;48.304;13.626;2023-04-25T03:47:09;8.80;99.90
40291;DHT22;26000;48.304;13.626;2023-04-25T03:49:34;8.90;99.90
40291;DHT22;26000;48.304;13.626;2023-04-25T03:52:01;8.80;99.90
40291;DHT22;26000;48.304;13.626;2023-04-25T03:54:27;8.80;99.90
40291;DHT22;26000;48.304;13.626;2023-04-25T03:56:52;8.80;99.90
40291;DHT22;26000;48.304;13.626;2023-04-25T03:59:18;8.80;99.90
40291;DHT22;26000;48.304;13.626;2023-04-25T04:01:44;8.80;99.90
40291;DHT22;26000;48.304;13.626;2023-04-25T04:04:09;8.80;99.90
40291;DHT22;26000;48.304;13.626;2023-04-25T04:06:35;8.80;99.90
40291;DHT22;26000;48.304;13.626;2023-04-25T04:09:02;8.70;99.90
40291;DHT22;26000;48.304;13.626;2023-04-25T04:11:28;8.80;99.90
40291;DHT22;26000;48.304;13.626;2023-04-25T04:13:53;8.80;99.90
40291;DHT22;26000;48.304;13.626;2023-04-25T04:16:19;8.80;99.90
40291;DHT22;26000;48.304;13.626;2023-04-25T04:18:45;8.80;99.90
40291;DHT22;26000;48.304;13.626;2023-04-25T04:21:12;8.90;99.90
40291;DHT22;26000;48.304;13.626;2023-04-25T04:23:37;8.90;99.90
40291;DHT22;26000;48.304;13.626;2023-04-25T04:26:03;8.90;99.90
40291;DHT22;26000;48.304;13.626;2023-04-25T04:28:29;8.80;99.90
40291;DHT22;26000;48.304;13.626;2023-04-25T04:30:55;8.90;99.90
40291;DHT22;26000;48.304;13.626;2023-04-25T04:33:21;8.90;99.90
40291;DHT22;26000;48.304;13.626;2023-04-25T04:35:47;8.90;99.90
40291;DHT22;26000;48.304;13.626;2023-04-25T04:38:13;8.90;99.90
40291;DHT22;26000;48.304;13.626;2023-04-25T04:40:41;8.90;99.90
40291;DHT22;26000;48.304;13.626;2023-04-25T04:43:08;8.90;99.90
40291;DHT22;26000;48.304;13.626;2023-04-25T04:45:36;8.90;99.90
40291;DHT22;26000;48.304;13.626;2023-04-25T04:48:05;8.90;99.90
40291;DHT22;26000;48.304;13.626;2023-04-25T04:50:30;8.80;99.90
40291;DHT22;26000;48.304;13.626;2023-04-25T04:52:58;8.80;99.90
40291;DHT22;26000;48.304;13.626;2023-04-25T04:55:23;9.00;99.90
40291;DHT22;26000;48.304;13.626;2023-04-25T04:57:49;9.00;99.90
40291;DHT22;26000;48.304;13.626;2023-04-25T05:00:15;9.00;99.90
40291;DHT22;26000;48.304;13.626;2023-04-25T05:02:41;9.10;99.90
40291;DHT22;26000;48.304;13.626;2023-04-25T05:05:07;9.00;99.90
40291;DHT22;26000;48.304;13.626;2023-04-25T05:07:33;9.10;99.90
40291;DHT22;26000;48.304;13.626;2023-04-25T05:09:59;9.10;99.90
40291;DHT22;26000;48.304;13.626;2023-04-25T05:12:24;9.20;99.90
40291;DHT22;26000;48.304;13.626;2023-04-25T05:14:50;9.30;99.90
40291;DHT22;26000;48.304;13.626;2023-04-25T05:17:16;9.40;99.90
40291;DHT22;26000;48.304;13.626;2023-04-25T05:19:41;9.30;99.90
40291;DHT22;26000;48.304;13.626;2023-04-25T05:22:07;9.30;99.90
40291;DHT22;26000;48.304;13.626;2023-04-25T05:24:33;9.30;99.90
40291;DHT22;26000;48.304;13.626;2023-04-25T05:26:58;9.40;99.90
40291;DHT22;26000;48.304;13.626;2023-04-25T05:29:24;9.50;99.90
40291;DHT22;26000;48.304;13.626;2023-04-25T05:31:49;9.60;99.90
40291;DHT22;26000;48.304;13.626;2023-04-25T05:34:15;9.70;99.90
40291;DHT22;26000;48.304;13.626;2023-04-25T05:36:42;9.80;99.90
40291;DHT22;26000;48.304;13.626;2023-04-25T05:39:07;9.70;99.90
40291;DHT22;26000;48.304;13.626;2023-04-25T05:41:34;9.80;99.90
40291;DHT22;26000;48.304;13.626;2023-04-25T05:43:59;9.80;99.90
40291;DHT22;26000;48.304;13.626;2023-04-25T05:46:25;9.90;99.90
40291;DHT22;26000;48.304;13.626;2023-04-25T05:48:50;10.00;99.90
40291;DHT22;26000;48.304;13.626;2023-04-25T05:51:16;10.00;99.90
40291;DHT22;26000;48.304;13.626;2023-04-25T05:53:44;10.00;99.90
40291;DHT22;26000;48.304;13.626;2023-04-25T05:56:09;10.10;99.90
40291;DHT22;26000;48.304;13.626;2023-04-25T05:58:35;10.10;99.90
40291;DHT22;26000;48.304;13.626;2023-04-25T06:01:01;10.20;99.90
40291;DHT22;26000;48.304;13.626;2023-04-25T06:03:27;10.30;99.90
40291;DHT22;26000;48.304;13.626;2023-04-25T06:05:53;10.70;99.90
40291;DHT22;26000;48.304;13.626;2023-04-25T06:08:19;10.80;99.90
40291;DHT22;26000;48.304;13.626;2023-04-25T06:10:44;11.00;99.90
40291;DHT22;26000;48.304;13.626;2023-04-25T06:13:10;11.10;99.90
40291;DHT22;26000;48.304;13.626;2023-04-25T06:15:36;11.20;99.90
40291;DHT22;26000;48.304;13.626;2023-04-25T06:18:01;11.40;99.90
40291;DHT22;26000;48.304;13.626;2023-04-25T06:20:27;11.50;99.90
40291;DHT22;26000;48.304;13.626;2023-04-25T06:22:53;11.60;99.90
40291;DHT22;26000;48.304;13.626;2023-04-25T06:25:18;11.70;99.90
40291;DHT22;26000;48.304;13.626;2023-04-25T06:27:45;11.60;99.90
40291;DHT22;26000;48.304;13.626;2023-04-25T06:30:11;11.60;99.90
40291;DHT22;26000;48.304;13.626;2023-04-25T06:32:38;11.60;99.90
40291;DHT22;26000;48.304;13.626;2023-04-25T06:35:04;11.50;99.90
40291;DHT22;26000;48.304;13.626;2023-04-25T06:37:29;11.60;99.90
40291;DHT22;26000;48.304;13.626;2023-04-25T06:39:55;11.60;99.90
40291;DHT22;26000;48.304;13.626;2023-04-25T06:42:21;11.50;99.90
40291;DHT22;26000;48.304;13.626;2023-04-25T06:44:47;11.50;99.90
40291;DHT22;26000;48.304;13.626;2023-04-25T06:47:14;11.40;99.90
40291;DHT22;26000;48.304;13.626;2023-04-25T06:49:39;11.40;99.90
40291;DHT22;26000;48.304;13.626;2023-04-25T06:52:05;11.40;99.90
40291;DHT22;26000;48.304;13.626;2023-04-25T06:54:30;11.40;99.90
40291;DHT22;26000;48.304;13.626;2023-04-25T06:56:56;11.30;99.90
40291;DHT22;26000;48.304;13.626;2023-04-25T06:59:22;11.30;99.90
40291;DHT22;26000;48.304;13.626;2023-04-25T07:01:48;11.30;99.90
40291;DHT22;26000;48.304;13.626;2023-04-25T07:04:13;11.40;99.90
40291;DHT22;26000;48.304;13.626;2023-04-25T07:06:39;11.70;99.90
40291;DHT22;26000;48.304;13.626;2023-04-25T07:09:08;12.10;99.90
40291;DHT22;26000;48.304;13.626;2023-04-25T07:11:35;12.30;99.90
40291;DHT22;26000;48.304;13.626;2023-04-25T07:14:01;12.40;99.90
40291;DHT22;26000;48.304;13.626;2023-04-25T07:16:27;12.50;99.90
40291;DHT22;26000;48.304;13.626;2023-04-25T07:18:52;12.50;99.90
40291;DHT22;26000;48.304;13.626;2023-04-25T07:21:18;12.50;99.90
40291;DHT22;26000;48.304;13.626;2023-04-25T07:23:44;12.40;99.90
40291;DHT22;26000;48.304;13.626;2023-04-25T07:26:09;12.30;99.90
40291;DHT22;26000;48.304;13.626;2023-04-25T07:28:35;12.50;99.90
40291;DHT22;26000;48.304;13.626;2023-04-25T07:31:01;12.80;99.90
40291;DHT22;26000;48.304;13.626;2023-04-25T07:33:27;12.90;99.90
40291;DHT22;26000;48.304;13.626;2023-04-25T07:35:53;12.90;99.90
40291;DHT22;26000;48.304;13.626;2023-04-25T07:38:18;12.70;99.90
40291;DHT22;26000;48.304;13.626;2023-04-25T07:40:44;12.70;99.90
40291;DHT22;26000;48.304;13.626;2023-04-25T07:43:09;12.70;99.90
40291;DHT22;26000;48.304;13.626;2023-04-25T07:45:37;12.70;99.90
40291;DHT22;26000;48.304;13.626;2023-04-25T07:48:03;12.90;99.90
40291;DHT22;26000;48.304;13.626;2023-04-25T07:50:28;13.10;99.90
40291;DHT22;26000;48.304;13.626;2023-04-25T07:52:54;13.30;99.90
40291;DHT22;26000;48.304;13.626;2023-04-25T07:55:20;13.30;99.90
40291;DHT22;26000;48.304;13.626;2023-04-25T07:57:46;13.40;99.90
40291;DHT22;26000;48.304;13.626;2023-04-25T08:00:12;13.60;99.90
40291;DHT22;26000;48.304;13.626;2023-04-25T08:02:38;14.20;99.90
40291;DHT22;26000;48.304;13.626;2023-04-25T08:05:04;14.80;99.90
40291;DHT22;26000;48.304;13.626;2023-04-25T08:07:30;15.20;99.90
40291;DHT22;26000;48.304;13.626;2023-04-25T08:09:55;15.50;99.90
40291;DHT22;26000;48.304;13.626;2023-04-25T08:12:21;15.30;99.90
40291;DHT22;26000;48.304;13.626;2023-04-25T08:14:47;14.90;99.90
40291;DHT22;26000;48.304;13.626;2023-04-25T08:17:12;14.40;99.90
40291;DHT22;26000;48.304;13.626;2023-04-25T08:19:38;14.10;99.90
40291;DHT22;26000;48.304;13.626;2023-04-25T08:22:03;13.80;99.90
40291;DHT22;26000;48.304;13.626;2023-04-25T08:24:29;13.70;99.90
40291;DHT22;26000;48.304;13.626;2023-04-25T08:26:54;13.70;99.90
40291;DHT22;26000;48.304;13.626;2023-04-25T08:29:20;13.70;99.90
40291;DHT22;26000;48.304;13.626;2023-04-25T08:31:48;13.80;99.90
40291;DHT22;26000;48.304;13.626;2023-04-25T08:34:14;14.00;99.90
40291;DHT22;26000;48.304;13.626;2023-04-25T08:36:40;14.40;99.90
40291;DHT22;26000;48.304;13.626;2023-04-25T08:39:06;15.00;99.90
40291;DHT22;26000;48.304;13.626;2023-04-25T08:41:32;15.60;99.90
40291;DHT22;26000;48.304;13.626;2023-04-25T08:43:58;16.10;99.90
40291;DHT22;26000;48.304;13.626;2023-04-25T08:46:25;16.40;99.90
40291;DHT22;26000;48.304;13.626;2023-04-25T08:48:52;16.70;99.90
40291;DHT22;26000;48.304;13.626;2023-04-25T08:51:22;16.70;99.90
40291;DHT22;26000;48.304;13.626;2023-04-25T08:53:52;16.90;99.90
40291;DHT22;26000;48.304;13.626;2023-04-25T08:56:18;17.30;99.90
40291;DHT22;26000;48.304;13.626;2023-04-25T08:58:48;17.50;99.90
40291;DHT22;26000;48.304;13.626;2023-04-25T09:01:14;17.60;99.90
40291;DHT22;26000;48.304;13.626;2023-04-25T09:03:39;17.80;99.90
40291;DHT22;26000;48.304;13.626;2023-04-25T09:06:05;17.90;99.90
40291;DHT22;26000;48.304;13.626;2023-04-25T09:08:31;18.10;99.90
40291;DHT22;26000;48.304;13.626;2023-04-25T09:10:56;18.20;99.90
40291;DHT22;26000;48.304;13.626;2023-04-25T09:13:27;18.10;99.90
40291;DHT22;26000;48.304;13.626;2023-04-25T09:15:57;18.10;99.90
40291;DHT22;26000;48.304;13.626;2023-04-25T09:18:31;18.20;99.20
40291;DHT22;26000;48.304;13.626;2023-04-25T09:21:04;18.20;97.20
40291;DHT22;26000;48.304;13.626;2023-04-25T09:23:31;18.30;99.20
40291;DHT22;26000;48.304;13.626;2023-04-25T09:26:03;18.50;96.60
40291;DHT22;26000;48.304;13.626;2023-04-25T09:28:31;18.90;99.20
40291;DHT22;26000;48.304;13.626;2023-04-25T09:30:57;18.80;96.70
40291;DHT22;26000;48.304;13.626;2023-04-25T09:33:31;18.30;96.80
40291;DHT22;26000;48.304;13.626;2023-04-25T09:36:08;17.80;97.20
40291;DHT22;26000;48.304;13.626;2023-04-25T09:38:44;17.00;97.90
40291;DHT22;26000;48.304;13.626;2023-04-25T09:41:11;16.60;98.70
40291;DHT22;26000;48.304;13.626;2023-04-25T09:43:37;16.40;99.90
40291;DHT22;26000;48.304;13.626;2023-04-25T09:46:09;16.20;99.50
40291;DHT22;26000;48.304;13.626;2023-04-25T09:48:35;16.00;99.70
40291;DHT22;26000;48.304;13.626;2023-04-25T09:51:12;16.20;99.90
40291;DHT22;26000;48.304;13.626;2023-04-25T09:53:44;16.60;99.90
40291;DHT22;26000;48.304;13.626;2023-04-25T09:56:12;16.50;99.10
40291;DHT22;26000;48.304;13.626;2023-04-25T09:58:39;16.10;99.80
40291;DHT22;26000;48.304;13.626;2023-04-25T10:01:10;15.70;99.90
40291;DHT22;26000;48.304;13.626;2023-04-25T10:03:39;15.50;99.90
40291;DHT22;26000;48.304;13.626;2023-04-25T10:06:08;15.00;99.90
40291;DHT22;26000;48.304;13.626;2023-04-25T10:08:36;14.70;99.90
40291;DHT22;26000;48.304;13.626;2023-04-25T10:11:05;14.60;99.90
40291;DHT22;26000;48.304;13.626;2023-04-25T10:13:33;14.40;99.90
40291;DHT22;26000;48.304;13.626;2023-04-25T10:16:00;14.10;99.90
40291;DHT22;26000;48.304;13.626;2023-04-25T10:18:30;13.60;99.90
40291;DHT22;26000;48.304;13.626;2023-04-25T10:21:00;13.30;99.90
40291;DHT22;26000;48.304;13.626;2023-04-25T10:23:26;13.10;99.90
40291;DHT22;26000;48.304;13.626;2023-04-25T10:25:53;13.00;99.90
40291;DHT22;26000;48.304;13.626;2023-04-25T10:28:20;13.10;99.90
40291;DHT22;26000;48.304;13.626;2023-04-25T10:31:07;13.10;99.90
40291;DHT22;26000;48.304;13.626;2023-04-25T10:36:18;13.20;99.90
40291;DHT22;26000;48.304;13.626;2023-04-25T10:38:45;13.40;99.90
40291;DHT22;26000;48.304;13.626;2023-04-25T10:41:12;13.50;99.90
40291;DHT22;26000;48.304;13.626;2023-04-25T10:43:42;13.60;99.90
40291;DHT22;26000;48.304;13.626;2023-04-25T10:46:24;13.70;99.90
40291;DHT22;26000;48.304;13.626;2023-04-25T10:48:52;13.90;99.90
40291;DHT22;26000;48.304;13.626;2023-04-25T10:51:25;14.50;99.90
40291;DHT22;26000;48.304;13.626;2023-04-25T10:56:24;15.60;99.90
40291;DHT22;26000;48.304;13.626;2023-04-25T10:58:50;15.80;99.90
40291;DHT22;26000;48.304;13.626;2023-04-25T11:01:20;16.10;99.90
40291;DHT22;26000;48.304;13.626;2023-04-25T11:03:46;16.30;99.90
40291;DHT22;26000;48.304;13.626;2023-04-25T11:06:46;16.40;99.20
40291;DHT22;26000;48.304;13.626;2023-04-25T11:09:17;16.50;99.70
40291;DHT22;26000;48.304;13.626;2023-04-25T11:11:42;16.50;99.40
40291;DHT22;26000;48.304;13.626;2023-04-25T11:14:08;16.50;99.90
40291;DHT22;26000;48.304;13.626;2023-04-25T11:16:34;16.60;99.50
40291;DHT22;26000;48.304;13.626;2023-04-25T11:19:01;16.50;99.30
40291;DHT22;26000;48.304;13.626;2023-04-25T11:21:27;16.40;99.90
40291;DHT22;26000;48.304;13.626;2023-04-25T11:23:54;16.50;99.90
40291;DHT22;26000;48.304;13.626;2023-04-25T11:26:20;16.50;99.90
40291;DHT22;26000;48.304;13.626;2023-04-25T11:28:46;16.40;99.90
40291;DHT22;26000;48.304;13.626;2023-04-25T11:31:12;16.30;99.90
40291;DHT22;26000;48.304;13.626;2023-04-25T11:33:38;16.30;99.90
40291;DHT22;26000;48.304;13.626;2023-04-25T11:36:04;16.30;99.90
40291;DHT22;26000;48.304;13.626;2023-04-25T11:38:30;16.50;99.90
40291;DHT22;26000;48.304;13.626;2023-04-25T11:40:56;16.50;99.90
40291;DHT22;26000;48.304;13.626;2023-04-25T11:43:22;16.70;99.60
40291;DHT22;26000;48.304;13.626;2023-04-25T11:45:49;16.80;99.90
40291;DHT22;26000;48.304;13.626;2023-04-25T11:48:16;16.50;99.00
40291;DHT22;26000;48.304;13.626;2023-04-25T11:50:41;16.30;99.90
40291;DHT22;26000;48.304;13.626;2023-04-25T11:53:07;16.40;99.90
40291;DHT22;26000;48.304;13.626;2023-04-25T11:55:33;16.10;98.90
40291;DHT22;26000;48.304;13.626;2023-04-25T11:58:00;15.50;99.10
40291;DHT22;26000;48.304;13.626;2023-04-25T12:00:26;15.00;99.70
40291;DHT22;26000;48.304;13.626;2023-04-25T12:02:53;14.60;99.90
40291;DHT22;26000;48.304;13.626;2023-04-25T12:05:20;14.00;99.90
40291;DHT22;26000;48.304;13.626;2023-04-25T12:07:46;13.60;99.90
40291;DHT22;26000;48.304;13.626;2023-04-25T12:10:14;13.10;99.90
40291;DHT22;26000;48.304;13.626;2023-04-25T12:12:47;12.70;99.90
40291;DHT22;26000;48.304;13.626;2023-04-25T12:15:24;12.40;99.90
40291;DHT22;26000;48.304;13.626;2023-04-25T12:17:51;12.40;99.90
40291;DHT22;26000;48.304;13.626;2023-04-25T12:20:19;12.10;99.90
40291;DHT22;26000;48.304;13.626;2023-04-25T12:22:47;12.00;99.90
40291;DHT22;26000;48.304;13.626;2023-04-25T12:25:14;11.80;99.90
40291;DHT22;26000;48.304;13.626;2023-04-25T12:28:19;11.60;99.90
40291;DHT22;26000;48.304;13.626;2023-04-25T12:30:55;11.70;99.90
40291;DHT22;26000;48.304;13.626;2023-04-25T12:33:22;11.70;99.90
40291;DHT22;26000;48.304;13.626;2023-04-25T12:35:47;11.70;99.90
40291;DHT22;26000;48.304;13.626;2023-04-25T12:40:52;11.50;99.90
40291;DHT22;26000;48.304;13.626;2023-04-25T12:43:18;11.60;99.90
40291;DHT22;26000;48.304;13.626;2023-04-25T12:45:44;11.60;99.90
40291;DHT22;26000;48.304;13.626;2023-04-25T12:48:10;11.60;99.90
40291;DHT22;26000;48.304;13.626;2023-04-25T12:50:36;11.60;99.90
40291;DHT22;26000;48.304;13.626;2023-04-25T12:53:02;11.70;99.90
40291;DHT22;26000;48.304;13.626;2023-04-25T12:55:27;11.80;99.90
40291;DHT22;26000;48.304;13.626;2023-04-25T12:57:53;12.10;99.90
40291;DHT22;26000;48.304;13.626;2023-04-25T13:00:18;12.30;99.90
40291;DHT22;26000;48.304;13.626;2023-04-25T13:02:45;12.50;99.90
40291;DHT22;26000;48.304;13.626;2023-04-25T13:05:12;12.70;99.90
40291;DHT22;26000;48.304;13.626;2023-04-25T13:07:38;12.50;99.90
40291;DHT22;26000;48.304;13.626;2023-04-25T13:10:04;12.40;99.90
40291;DHT22;26000;48.304;13.626;2023-04-25T13:12:31;12.50;99.90
40291;DHT22;26000;48.304;13.626;2023-04-25T13:14:57;12.60;99.90
40291;DHT22;26000;48.304;13.626;2023-04-25T13:17:22;12.60;99.90
40291;DHT22;26000;48.304;13.626;2023-04-25T13:19:48;12.60;99.90
40291;DHT22;26000;48.304;13.626;2023-04-25T13:22:13;12.80;99.90
40291;DHT22;26000;48.304;13.626;2023-04-25T13:24:40;12.90;99.90
40291;DHT22;26000;48.304;13.626;2023-04-25T13:27:06;12.90;99.90
40291;DHT22;26000;48.304;13.626;2023-04-25T13:29:32;13.00;99.90
40291;DHT22;26000;48.304;13.626;2023-04-25T13:32:00;13.00;99.90
40291;DHT22;26000;48.304;13.626;2023-04-25T13:34:26;13.10;99.90
40291;DHT22;26000;48.304;13.626;2023-04-25T13:36:51;13.10;99.90
40291;DHT22;26000;48.304;13.626;2023-04-25T13:39:17;13.30;99.90
40291;DHT22;26000;48.304;13.626;2023-04-25T13:41:43;13.40;99.90
40291;DHT22;26000;48.304;13.626;2023-04-25T13:44:09;13.30;99.90
40291;DHT22;26000;48.304;13.626;2023-04-25T13:46:36;13.40;99.90
40291;DHT22;26000;48.304;13.626;2023-04-25T13:49:03;13.40;99.90
40291;DHT22;26000;48.304;13.626;2023-04-25T13:51:28;13.30;99.90
40291;DHT22;26000;48.304;13.626;2023-04-25T13:53:54;13.30;99.90
40291;DHT22;26000;48.304;13.626;2023-04-25T13:56:20;13.40;99.90
40291;DHT22;26000;48.304;13.626;2023-04-25T13:58:47;13.40;99.90
40291;DHT22;26000;48.304;13.626;2023-04-25T14:01:13;13.30;99.90
40291;DHT22;26000;48.304;13.626;2023-04-25T14:03:39;13.30;99.90
40291;DHT22;26000;48.304;13.626;2023-04-25T14:06:05;13.30;99.90
40291;DHT22;26000;48.304;13.626;2023-04-25T14:08:31;13.50;99.90
40291;DHT22;26000;48.304;13.626;2023-04-25T14:10:57;13.60;99.90
40291;DHT22;26000;48.304;13.626;2023-04-25T14:13:22;13.90;99.90
40291;DHT22;26000;48.304;13.626;2023-04-25T14:15:49;13.90;99.90
40291;DHT22;26000;48.304;13.626;2023-04-25T14:18:15;13.90;99.90
40291;DHT22;26000;48.304;13.626;2023-04-25T14:20:41;13.90;99.90
40291;DHT22;26000;48.304;13.626;2023-04-25T14:23:07;13.80;99.90
40291;DHT22;26000;48.304;13.626;2023-04-25T14:25:32;13.80;99.90
40291;DHT22;26000;48.304;13.626;2023-04-25T14:27:58;13.70;99.90
40291;DHT22;26000;48.304;13.626;2023-04-25T14:30:23;13.60;99.90
40291;DHT22;26000;48.304;13.626;2023-04-25T14:32:49;13.60;99.90
40291;DHT22;26000;48.304;13.626;2023-04-25T14:35:15;13.50;99.90
40291;DHT22;26000;48.304;13.626;2023-04-25T14:37:41;13.50;99.90
40291;DHT22;26000;48.304;13.626;2023-04-25T14:40:07;13.40;99.90
40291;DHT22;26000;48.304;13.626;2023-04-25T14:42:38;13.40;99.90
40291;DHT22;26000;48.304;13.626;2023-04-25T14:45:05;13.40;99.90
40291;DHT22;26000;48.304;13.626;2023-04-25T14:47:32;13.20;99.90
40291;DHT22;26000;48.304;13.626;2023-04-25T14:49:58;13.30;99.90
40291;DHT22;26000;48.304;13.626;2023-04-25T14:52:24;13.30;99.90
40291;DHT22;26000;48.304;13.626;2023-04-25T14:54:50;13.20;99.90
40291;DHT22;26000;48.304;13.626;2023-04-25T14:57:16;13.00;99.90
40291;DHT22;26000;48.304;13.626;2023-04-25T14:59:42;12.80;99.90
40291;DHT22;26000;48.304;13.626;2023-04-25T15:02:07;12.60;99.90
40291;DHT22;26000;48.304;13.626;2023-04-25T15:04:33;12.40;99.90
40291;DHT22;26000;48.304;13.626;2023-04-25T15:06:59;12.30;99.90
40291;DHT22;26000;48.304;13.626;2023-04-25T15:09:24;12.10;99.90
40291;DHT22;26000;48.304;13.626;2023-04-25T15:11:50;12.00;99.90
40291;DHT22;26000;48.304;13.626;2023-04-25T15:14:19;11.90;99.90
40291;DHT22;26000;48.304;13.626;2023-04-25T15:16:45;11.90;99.90
40291;DHT22;26000;48.304;13.626;2023-04-25T15:19:11;11.80;99.90
40291;DHT22;26000;48.304;13.626;2023-04-25T15:21:36;11.80;99.90
40291;DHT22;26000;48.304;13.626;2023-04-25T15:24:02;11.80;99.90
40291;DHT22;26000;48.304;13.626;2023-04-25T15:26:28;11.70;99.90